Time;durP1;ratioP1;P1;durP2;ratioP2;P2;SDS_P1;SDS_P2;PMS_P1;PMS_P2;Temp;Humidity;BMP_temperature;BMP_pressure;BME280_temperature;BME280_humidity;BME280_pressure;Samples;Min_cycle;Max_cycle;Signal;HPM_P1;HPM_P2
2021/08/19 00:01:35;;;;;;;3.97;3.67;;;19.40;99.90;;;;;;5002159;28;20201;-76
2021/08/19 00:04:02;;;;;;;4.50;4.10;;;19.40;99.90;;;;;;4998336;28;20751;-77
2021/08/19 00:06:30;;;;;;;4.50;4.10;;;19.40;99.90;;;;;;5007848;28;20633;-76
2021/08/19 00:08:57;;;;;;;5.40;3.55;;;19.40;99.90;;;;;;4992482;28;20544;-76
2021/08/19 00:11:23;;;;;;;4.88;4.43;;;19.40;99.90;;;;;;5001021;28;20193;-76
2021/08/19 00:13:50;;;;;;;3.92;3.63;;;19.40;99.90;;;;;;5009880;28;20255;-76
2021/08/19 00:16:17;;;;;;;3.67;3.28;;;19.40;99.90;;;;;;5010217;28;20266;-76
2021/08/19 00:18:43;;;;;;;4.75;3.90;;;19.40;99.90;;;;;;5000026;28;20201;-76
2021/08/19 00:21:10;;;;;;;4.05;3.70;;;19.40;99.90;;;;;;5003196;28;20205;-76
2021/08/19 00:23:38;;;;;;;3.88;3.13;;;19.40;99.90;;;;;;4998112;28;20299;-76
2021/08/19 00:26:06;;;;;;;8.98;4.10;;;19.30;99.90;;;;;;4999883;28;20196;-77
2021/08/19 00:28:33;;;;;;;6.45;4.50;;;19.40;99.90;;;;;;5004878;28;20248;-77
2021/08/19 00:31:00;;;;;;;4.10;3.70;;;19.30;99.90;;;;;;5003706;28;20266;-77
2021/08/19 00:33:27;;;;;;;3.45;3.15;;;19.30;99.90;;;;;;4993714;28;20567;-77
2021/08/19 00:35:54;;;;;;;3.60;3.30;;;19.30;99.90;;;;;;5010163;28;20205;-77
2021/08/19 00:38:21;;;;;;;4.32;3.55;;;19.30;99.90;;;;;;4999913;28;20244;-77
2021/08/19 00:40:49;;;;;;;4.07;3.67;;;19.40;99.90;;;;;;5006319;28;20193;-77
2021/08/19 00:43:15;;;;;;;5.88;5.38;;;19.30;99.90;;;;;;5008745;28;20628;-77
2021/08/19 00:45:42;;;;;;;5.15;4.75;;;19.40;99.90;;;;;;4998335;28;20201;-76
2021/08/19 00:48:09;;;;;;;4.00;3.58;;;19.30;99.90;;;;;;5000047;28;20255;-76
2021/08/19 00:50:37;;;;;;;4.63;4.22;;;19.30;99.90;;;;;;5005822;28;20197;-75
2021/08/19 00:53:04;;;;;;;4.97;4.57;;;19.30;99.90;;;;;;5005919;28;20264;-76
2021/08/19 00:55:31;;;;;;;5.35;4.50;;;19.30;99.90;;;;;;4992040;28;20736;-76
2021/08/19 00:58:00;;;;;;;3.55;3.22;;;19.30;99.90;;;;;;4992678;28;20197;-75
2021/08/19 01:00:27;;;;;;;5.55;4.30;;;19.30;99.90;;;;;;4993208;28;20235;-75
2021/08/19 01:02:57;;;;;;;4.03;3.63;;;19.30;99.90;;;;;;5002025;28;20247;-76
2021/08/19 01:05:27;;;;;;;5.15;4.75;;;19.30;99.90;;;;;;5011756;28;20204;-76
2021/08/19 01:07:54;;;;;;;4.82;4.43;;;19.40;99.90;;;;;;5009682;28;20272;-76
2021/08/19 01:10:21;;;;;;;6.10;3.75;;;19.30;99.90;;;;;;5006225;28;20614;-76
2021/08/19 01:12:48;;;;;;;4.72;4.18;;;19.30;99.90;;;;;;4997557;28;20194;-75
2021/08/19 01:15:16;;;;;;;5.38;4.88;;;19.30;99.90;;;;;;5011341;28;20193;-75
2021/08/19 01:17:43;;;;;;;4.65;4.20;;;19.30;99.90;;;;;;5001776;28;20212;-75
2021/08/19 01:20:10;;;;;;;7.03;4.80;;;19.30;99.90;;;;;;4991714;28;20209;-74
2021/08/19 01:22:37;;;;;;;5.10;4.65;;;19.30;99.90;;;;;;4994812;28;20213;-75
2021/08/19 01:25:05;;;;;;;6.25;5.65;;;19.30;99.90;;;;;;5002053;28;20279;-75
2021/08/19 01:27:33;;;;;;;5.00;4.47;;;19.30;99.90;;;;;;5002686;28;20479;-75
2021/08/19 01:29:59;;;;;;;5.57;5.10;;;19.30;99.90;;;;;;5010751;28;20197;-75
2021/08/19 01:32:27;;;;;;;5.00;4.50;;;19.20;99.90;;;;;;5001333;28;20606;-75
2021/08/19 01:34:54;;;;;;;5.45;4.72;;;19.20;99.90;;;;;;5006101;28;20236;-76
2021/08/19 01:37:21;;;;;;;5.28;4.78;;;19.20;99.90;;;;;;5000312;28;20289;-76
2021/08/19 01:39:48;;;;;;;5.20;4.70;;;19.20;99.90;;;;;;5009060;28;20204;-76
2021/08/19 01:42:15;;;;;;;5.13;4.63;;;19.20;99.90;;;;;;5010441;28;20189;-76
2021/08/19 01:44:43;;;;;;;5.95;5.45;;;19.20;99.90;;;;;;4995958;28;20224;-76
2021/08/19 01:47:12;;;;;;;5.03;4.53;;;19.20;99.90;;;;;;5004320;28;20196;-75
2021/08/19 01:49:40;;;;;;;5.05;4.65;;;19.20;99.90;;;;;;5014870;28;20251;-75
2021/08/19 01:52:09;;;;;;;5.38;4.88;;;19.20;99.90;;;;;;5014730;28;20197;-76
2021/08/19 01:54:36;;;;;;;7.20;6.55;;;19.20;99.90;;;;;;5012508;28;20227;-76
2021/08/19 01:57:03;;;;;;;5.07;4.68;;;19.20;99.90;;;;;;5012437;28;20196;-76
2021/08/19 01:59:30;;;;;;;5.40;4.90;;;19.20;99.90;;;;;;5004578;28;20201;-75
2021/08/19 02:02:00;;;;;;;5.45;4.95;;;19.20;99.90;;;;;;5013506;28;20205;-76
2021/08/19 02:04:27;;;;;;;5.88;5.10;;;19.20;99.90;;;;;;5015087;28;20798;-76
2021/08/19 02:06:53;;;;;;;6.43;5.85;;;19.10;99.90;;;;;;5008735;28;20201;-76
2021/08/19 02:09:20;;;;;;;5.70;5.20;;;19.10;99.90;;;;;;4998407;28;20198;-76
2021/08/19 02:11:47;;;;;;;7.55;5.85;;;19.10;99.90;;;;;;5001270;28;20561;-76
2021/08/19 02:14:14;;;;;;;6.97;6.38;;;19.10;99.90;;;;;;5005435;28;20223;-76
2021/08/19 02:16:40;;;;;;;5.95;5.35;;;19.10;99.90;;;;;;4994767;28;20272;-76
2021/08/19 02:19:08;;;;;;;5.78;5.28;;;19.20;99.90;;;;;;4995853;28;20193;-76
2021/08/19 02:21:35;;;;;;;6.35;5.75;;;19.10;99.90;;;;;;5002725;28;20193;-75
2021/08/19 02:24:01;;;;;;;6.15;5.65;;;19.10;99.90;;;;;;5000303;28;20218;-75
2021/08/19 02:26:28;;;;;;;6.22;5.65;;;19.10;99.90;;;;;;5005573;28;20713;-76
2021/08/19 02:28:55;;;;;;;6.03;5.53;;;19.10;99.90;;;;;;5003085;28;20255;-76
2021/08/19 02:31:21;;;;;;;7.32;5.60;;;19.10;99.90;;;;;;5005320;28;20190;-76
2021/08/19 02:33:48;;;;;;;7.22;6.53;;;19.10;99.90;;;;;;4994707;28;20202;-76
2021/08/19 02:36:16;;;;;;;7.18;6.50;;;19.10;99.90;;;;;;4999446;28;20194;-76
2021/08/19 02:38:43;;;;;;;5.90;5.40;;;19.10;99.90;;;;;;5001135;28;20203;-76
2021/08/19 02:41:09;;;;;;;6.60;6.00;;;19.10;99.90;;;;;;5012952;28;20204;-75
2021/08/19 02:43:42;;;;;;;6.95;6.35;;;19.10;99.90;;;;;;5003222;28;20209;-75
2021/08/19 02:46:10;;;;;;;7.00;6.38;;;19.00;99.90;;;;;;5004413;28;20582;-75
2021/08/19 02:48:37;;;;;;;7.57;6.88;;;19.10;99.90;;;;;;4994226;28;20565;-75
2021/08/19 02:51:04;;;;;;;6.88;6.18;;;19.10;99.90;;;;;;5009218;28;20229;-75
2021/08/19 02:53:32;;;;;;;8.02;7.15;;;19.10;99.90;;;;;;5011122;28;20272;-75
2021/08/19 02:55:59;;;;;;;10.10;7.45;;;19.00;99.90;;;;;;5004856;28;20224;-75
2021/08/19 02:58:26;;;;;;;6.40;5.78;;;19.00;99.90;;;;;;4993975;28;20662;-75
2021/08/19 03:00:52;;;;;;;8.65;6.15;;;19.00;99.90;;;;;;5003551;28;20189;-75
2021/08/19 03:03:19;;;;;;;7.30;6.68;;;19.00;99.90;;;;;;5008451;28;20194;-75
2021/08/19 03:05:45;;;;;;;8.27;7.55;;;19.00;99.90;;;;;;5006980;28;20213;-75
2021/08/19 03:08:12;;;;;;;10.18;8.48;;;19.00;99.90;;;;;;5006399;28;20717;-75
2021/08/19 03:10:40;;;;;;;6.65;6.05;;;19.00;99.90;;;;;;4999234;28;20196;-76
2021/08/19 03:13:07;;;;;;;9.93;6.95;;;19.10;99.90;;;;;;5004697;28;20694;-76
2021/08/19 03:15:34;;;;;;;8.45;7.75;;;19.00;99.90;;;;;;5012677;28;20216;-77
2021/08/19 03:18:00;;;;;;;9.25;8.40;;;19.00;99.90;;;;;;5006296;28;20259;-75
2021/08/19 03:20:27;;;;;;;7.65;6.85;;;19.00;99.90;;;;;;5012975;28;20247;-75
2021/08/19 03:22:55;;;;;;;6.57;6.07;;;19.00;99.90;;;;;;5008627;28;20205;-76
2021/08/19 03:25:22;;;;;;;6.85;6.25;;;19.00;99.90;;;;;;4994652;28;20227;-76
2021/08/19 03:27:50;;;;;;;7.15;6.55;;;19.00;99.90;;;;;;5009436;28;20197;-76
2021/08/19 03:30:17;;;;;;;7.22;6.53;;;19.00;99.90;;;;;;5005871;28;20581;-76
2021/08/19 03:32:44;;;;;;;6.53;6.03;;;19.00;99.90;;;;;;4993351;28;20206;-77
2021/08/19 03:35:11;;;;;;;6.72;6.00;;;19.00;99.90;;;;;;5010267;28;20223;-76
2021/08/19 03:37:40;;;;;;;6.90;6.30;;;19.00;99.90;;;;;;5000590;28;20727;-77
2021/08/19 03:40:08;;;;;;;6.93;6.40;;;18.90;99.90;;;;;;5005466;28;20193;-76
2021/08/19 03:42:35;;;;;;;7.07;6.38;;;18.90;99.90;;;;;;4997772;28;20190;-76
2021/08/19 03:45:05;;;;;;;7.57;6.90;;;18.90;99.90;;;;;;4994228;28;20304;-76
2021/08/19 03:47:31;;;;;;;7.30;6.60;;;18.90;99.90;;;;;;4996149;28;20202;-76
2021/08/19 03:49:58;;;;;;;6.63;6.03;;;18.90;99.90;;;;;;5003342;28;20239;-76
2021/08/19 03:52:25;;;;;;;6.30;5.80;;;18.90;99.90;;;;;;5002850;28;20196;-76
2021/08/19 03:54:51;;;;;;;6.15;5.65;;;18.90;99.90;;;;;;5012449;28;20613;-76
2021/08/19 03:57:18;;;;;;;7.15;5.93;;;18.90;99.90;;;;;;5002631;28;20593;-76
2021/08/19 03:59:45;;;;;;;5.93;5.43;;;18.90;99.90;;;;;;5011852;28;20653;-76
2021/08/19 04:02:13;;;;;;;6.18;5.57;;;18.90;99.90;;;;;;5003218;28;20666;-76
2021/08/19 04:04:39;;;;;;;6.65;6.00;;;18.80;99.90;;;;;;5008666;28;20221;-76
2021/08/19 04:07:06;;;;;;;6.03;5.53;;;18.90;99.90;;;;;;5011184;28;20244;-75
2021/08/19 04:09:33;;;;;;;6.20;5.70;;;18.90;99.90;;;;;;4994735;28;20213;-75
2021/08/19 04:12:00;;;;;;;6.50;5.90;;;18.80;99.90;;;;;;4992910;28;20307;-75
2021/08/19 04:14:26;;;;;;;5.35;4.85;;;18.80;99.90;;;;;;5011992;28;20201;-75
2021/08/19 04:16:53;;;;;;;5.82;5.32;;;18.80;99.90;;;;;;5009672;28;20267;-75
2021/08/19 04:19:21;;;;;;;5.88;5.30;;;18.80;99.90;;;;;;5012325;28;20225;-75
2021/08/19 04:21:48;;;;;;;6.03;5.53;;;18.80;99.90;;;;;;4997216;28;20223;-75
2021/08/19 04:24:14;;;;;;;5.18;4.78;;;18.80;99.90;;;;;;4993428;28;20589;-76
2021/08/19 04:26:41;;;;;;;5.93;5.35;;;18.80;99.90;;;;;;4997049;28;20268;-76
2021/08/19 04:29:08;;;;;;;5.65;4.72;;;18.80;99.90;;;;;;5003952;28;20247;-76
2021/08/19 04:31:35;;;;;;;4.85;4.45;;;18.80;99.90;;;;;;4998838;28;20255;-75
2021/08/19 04:34:03;;;;;;;5.43;4.90;;;18.80;99.90;;;;;;4999489;28;20201;-75
2021/08/19 04:36:31;;;;;;;6.32;5.65;;;18.80;99.90;;;;;;5011656;28;20657;-75
2021/08/19 04:38:58;;;;;;;6.35;5.80;;;18.80;99.90;;;;;;4998958;28;20201;-76
2021/08/19 04:41:24;;;;;;;6.05;5.40;;;18.80;99.90;;;;;;4999814;28;20193;-75
2021/08/19 04:43:51;;;;;;;4.55;4.15;;;18.80;99.90;;;;;;4997321;28;20204;-75
2021/08/19 04:46:18;;;;;;;5.15;4.70;;;18.70;99.90;;;;;;4992068;28;20229;-75
2021/08/19 04:48:44;;;;;;;5.28;4.78;;;18.70;99.90;;;;;;4991850;28;20223;-76
2021/08/19 04:51:11;;;;;;;5.05;4.57;;;18.80;99.90;;;;;;5001572;28;20243;-75
2021/08/19 04:53:39;;;;;;;5.63;5.13;;;18.70;99.90;;;;;;5009409;28;20227;-74
2021/08/19 04:56:06;;;;;;;5.82;5.05;;;18.70;99.90;;;;;;5001794;28;20213;-75
2021/08/19 04:58:32;;;;;;;5.65;5.15;;;18.80;99.90;;;;;;5001376;28;20193;-74
2021/08/19 05:00:59;;;;;;;5.18;4.78;;;18.70;99.90;;;;;;5005992;28;20248;-73
2021/08/19 05:03:26;;;;;;;5.30;4.80;;;18.70;99.90;;;;;;4997254;28;20267;-74
2021/08/19 05:05:52;;;;;;;5.60;5.07;;;18.70;99.90;;;;;;5011639;28;20220;-74
2021/08/19 05:08:19;;;;;;;10.75;6.35;;;18.70;99.90;;;;;;5002953;28;20201;-74
2021/08/19 05:10:47;;;;;;;5.20;4.80;;;18.70;99.90;;;;;;4993646;28;20224;-74
2021/08/19 05:13:14;;;;;;;5.63;5.13;;;18.70;99.90;;;;;;4997368;28;20222;-74
2021/08/19 05:15:40;;;;;;;5.60;5.20;;;18.70;99.90;;;;;;5000984;28;20725;-74
2021/08/19 05:18:07;;;;;;;4.95;4.55;;;18.70;99.90;;;;;;4999406;28;20729;-75
2021/08/19 05:20:34;;;;;;;5.25;4.63;;;18.70;99.90;;;;;;4999882;28;20202;-74
2021/08/19 05:23:00;;;;;;;5.00;4.60;;;18.70;99.90;;;;;;5004233;28;20204;-74
2021/08/19 05:25:27;;;;;;;5.53;5.03;;;18.70;99.90;;;;;;5000134;28;20225;-74
2021/08/19 05:27:55;;;;;;;5.85;5.30;;;18.70;99.90;;;;;;5003103;28;20194;-74
2021/08/19 05:30:22;;;;;;;6.05;5.55;;;18.70;99.90;;;;;;4995742;28;20205;-74
2021/08/19 05:32:48;;;;;;;5.22;4.82;;;18.70;99.90;;;;;;5007449;28;20251;-73
2021/08/19 05:35:15;;;;;;;5.60;5.20;;;18.70;99.90;;;;;;5014492;28;20228;-75
2021/08/19 05:37:42;;;;;;;6.57;6.00;;;18.70;99.90;;;;;;5012502;28;20665;-75
2021/08/19 05:40:10;;;;;;;6.47;5.88;;;18.70;99.90;;;;;;5011627;28;20616;-75
2021/08/19 05:42:36;;;;;;;7.80;7.10;;;18.70;99.90;;;;;;4997627;28;20201;-76
2021/08/19 05:45:06;;;;;;;8.32;6.65;;;18.70;99.90;;;;;;5007097;28;20224;-76
2021/08/19 05:47:32;;;;;;;7.13;6.43;;;18.70;99.90;;;;;;4998102;28;20630;-75
2021/08/19 05:49:59;;;;;;;6.70;6.10;;;18.70;99.90;;;;;;5014463;28;20645;-75
2021/08/19 05:52:26;;;;;;;6.32;5.72;;;18.70;99.90;;;;;;4995343;28;20198;-76
2021/08/19 05:54:52;;;;;;;7.50;6.80;;;18.70;99.90;;;;;;5012991;28;20201;-76
2021/08/19 05:57:19;;;;;;;7.07;6.38;;;18.70;99.90;;;;;;5010584;28;20241;-75
2021/08/19 05:59:46;;;;;;;6.80;6.15;;;18.70;99.90;;;;;;5009376;28;20197;-75
2021/08/19 06:02:14;;;;;;;7.10;6.50;;;18.70;99.90;;;;;;5006781;28;20657;-76
2021/08/19 06:04:40;;;;;;;11.65;8.13;;;18.70;99.90;;;;;;5014769;28;20205;-75
2021/08/19 06:07:07;;;;;;;7.85;7.15;;;18.70;99.90;;;;;;4998424;28;20244;-75
2021/08/19 06:09:34;;;;;;;6.97;5.93;;;18.70;99.90;;;;;;5006221;28;20538;-76
2021/08/19 06:12:01;;;;;;;8.32;7.40;;;18.70;99.90;;;;;;5001099;28;20224;-75
2021/08/19 06:14:28;;;;;;;7.65;6.95;;;18.70;99.90;;;;;;4997880;28;20193;-75
2021/08/19 06:16:54;;;;;;;7.70;6.95;;;18.60;99.90;;;;;;5011699;28;20216;-75
2021/08/19 06:19:22;;;;;;;7.80;6.82;;;18.80;99.90;;;;;;4995469;28;20665;-75
2021/08/19 06:21:49;;;;;;;9.02;8.10;;;18.70;99.90;;;;;;5007607;28;20196;-75
2021/08/19 06:24:16;;;;;;;10.05;8.52;;;18.60;99.90;;;;;;4997521;28;20209;-76
2021/08/19 06:26:43;;;;;;;9.13;7.60;;;18.60;99.90;;;;;;5006896;28;20217;-76
2021/08/19 06:29:09;;;;;;;10.10;9.07;;;18.60;99.90;;;;;;4994704;28;20201;-76
2021/08/19 06:31:36;;;;;;;8.23;7.53;;;18.60;99.90;;;;;;5009893;28;20209;-75
2021/08/19 06:34:03;;;;;;;7.70;7.00;;;18.60;99.90;;;;;;5006764;28;20196;-76
2021/08/19 06:36:31;;;;;;;8.77;7.95;;;18.60;99.90;;;;;;5013730;28;20200;-76
2021/08/19 06:38:58;;;;;;;10.85;9.30;;;18.60;99.90;;;;;;5001105;28;20198;-76
2021/08/19 06:41:26;;;;;;;11.23;10.10;;;18.70;99.90;;;;;;5007053;28;20200;-76
2021/08/19 06:43:53;;;;;;;11.88;10.60;;;18.70;99.90;;;;;;5001612;28;20190;-76
2021/08/19 06:46:20;;;;;;;10.13;9.18;;;18.70;99.90;;;;;;4994090;28;20221;-75
2021/08/19 06:48:47;;;;;;;11.90;10.70;;;18.70;99.90;;;;;;4994206;28;20198;-75
2021/08/19 06:51:14;;;;;;;13.77;12.07;;;18.70;99.90;;;;;;5004445;28;20651;-75
2021/08/19 06:53:42;;;;;;;15.70;12.82;;;18.70;99.90;;;;;;4997828;28;20632;-75
2021/08/19 06:56:09;;;;;;;12.65;11.43;;;18.80;99.90;;;;;;4994243;28;20667;-75
2021/08/19 06:58:35;;;;;;;15.23;12.52;;;18.70;99.90;;;;;;5011006;28;20201;-75
2021/08/19 07:01:02;;;;;;;11.77;10.60;;;18.80;99.90;;;;;;5006964;28;20194;-75
2021/08/19 07:03:29;;;;;;;12.43;10.35;;;18.70;99.90;;;;;;4996642;28;20201;-75
2021/08/19 07:05:55;;;;;;;13.60;12.15;;;18.70;99.90;;;;;;4994075;28;20364;-75
2021/08/19 07:08:22;;;;;;;12.15;10.32;;;18.70;99.90;;;;;;4999183;28;20220;-74
2021/08/19 07:10:50;;;;;;;12.20;10.90;;;18.70;99.90;;;;;;5010873;28;20196;-75
2021/08/19 07:13:17;;;;;;;11.15;10.10;;;18.70;99.90;;;;;;5010040;28;20201;-74
2021/08/19 07:15:45;;;;;;;15.70;12.32;;;18.70;99.90;;;;;;5008217;28;20279;-76
2021/08/19 07:18:13;;;;;;;9.48;8.55;;;18.70;99.90;;;;;;5010455;28;20207;-75
2021/08/19 07:20:39;;;;;;;12.35;9.75;;;18.70;99.90;;;;;;5001722;28;20579;-75
2021/08/19 07:23:06;;;;;;;10.10;9.10;;;18.70;99.90;;;;;;5006881;28;20709;-76
2021/08/19 07:25:33;;;;;;;12.00;10.85;;;18.70;99.90;;;;;;5006459;28;20303;-75
2021/08/19 07:28:01;;;;;;;15.38;13.15;;;18.70;99.90;;;;;;5013269;28;20288;-75
2021/08/19 07:30:28;;;;;;;14.90;13.30;;;18.70;99.90;;;;;;5007888;28;20197;-75
2021/08/19 07:32:55;;;;;;;14.75;12.98;;;18.70;99.90;;;;;;4993067;28;20248;-75
2021/08/19 07:35:22;;;;;;;13.80;11.60;;;18.70;99.90;;;;;;5009468;28;20679;-75
2021/08/19 07:37:50;;;;;;;12.38;11.20;;;18.80;99.90;;;;;;5008818;28;20252;-77
2021/08/19 07:40:17;;;;;;;11.38;9.93;;;18.70;99.90;;;;;;5001428;28;20654;-75
2021/08/19 07:42:44;;;;;;;11.60;10.43;;;18.50;99.90;;;;;;5006732;28;20259;-76
2021/08/19 07:45:14;;;;;;;10.35;9.35;;;18.70;99.90;;;;;;5011380;28;20312;-75
2021/08/19 07:47:41;;;;;;;12.73;10.80;;;18.70;99.90;;;;;;4991352;28;20201;-75
2021/08/19 07:50:09;;;;;;;10.85;9.75;;;18.70;99.90;;;;;;5011467;28;20612;-75
2021/08/19 07:52:37;;;;;;;11.20;9.73;;;18.70;99.90;;;;;;5009494;28;20204;-75
2021/08/19 07:55:04;;;;;;;9.85;8.85;;;18.70;99.90;;;;;;5002417;28;20267;-75
2021/08/19 07:57:43;;;;;;;12.85;11.50;;;18.70;99.90;;;;;;4995599;28;20202;-75
2021/08/19 08:00:13;;;;;;;10.75;9.75;;;18.70;99.90;;;;;;5006009;28;20204;-75
2021/08/19 08:02:40;;;;;;;15.32;10.05;;;18.70;99.90;;;;;;5014648;28;20203;-75
2021/08/19 08:05:08;;;;;;;11.27;10.32;;;18.70;99.90;;;;;;5032579;28;20196;-77
2021/08/19 08:07:34;;;;;;;11.95;10.85;;;18.70;99.90;;;;;;5023318;28;20197;-75
2021/08/19 08:10:01;;;;;;;11.70;10.50;;;18.70;99.90;;;;;;5005875;28;20258;-75
2021/08/19 08:12:28;;;;;;;10.63;9.73;;;18.70;99.90;;;;;;5010396;28;20204;-79
2021/08/19 08:14:55;;;;;;;12.57;10.50;;;18.70;99.90;;;;;;5019714;28;20204;-80
2021/08/19 08:17:23;;;;;;;12.50;11.20;;;18.70;99.90;;;;;;5007091;28;20221;-80
2021/08/19 08:19:50;;;;;;;15.38;12.63;;;19.00;99.90;;;;;;5022029;28;20196;-79
2021/08/19 08:22:18;;;;;;;13.98;12.52;;;18.70;99.90;;;;;;5020443;28;20199;-79
2021/08/19 08:24:45;;;;;;;13.52;12.23;;;18.80;99.90;;;;;;5025459;28;20204;-79
2021/08/19 08:27:12;;;;;;;12.55;11.27;;;18.70;99.90;;;;;;5024315;28;20224;-80
2021/08/19 08:29:39;;;;;;;14.10;12.70;;;18.70;99.90;;;;;;5005217;28;20197;-81
2021/08/19 08:32:06;;;;;;;13.05;11.85;;;18.70;99.90;;;;;;5010941;28;20197;-80
2021/08/19 08:34:35;;;;;;;12.98;11.73;;;18.70;99.90;;;;;;5009950;28;20224;-79
2021/08/19 08:37:02;;;;;;;17.98;14.48;;;18.70;99.90;;;;;;5017942;28;20664;-79
2021/08/19 08:39:31;;;;;;;12.35;11.00;;;18.70;99.90;;;;;;5000560;28;20606;-79
2021/08/19 08:41:58;;;;;;;12.00;10.88;;;18.70;99.90;;;;;;5007009;28;20197;-80
2021/08/19 08:44:28;;;;;;;12.40;11.23;;;18.80;99.90;;;;;;5014959;28;20589;-81
2021/08/19 08:46:55;;;;;;;12.20;11.10;;;18.70;99.90;;;;;;5010483;28;20308;-78
2021/08/19 08:49:23;;;;;;;11.35;10.25;;;18.70;99.90;;;;;;4998291;28;20205;-78
2021/08/19 08:51:56;;;;;;;10.88;9.82;;;18.70;99.90;;;;;;5007365;28;20577;-80
2021/08/19 08:54:22;;;;;;;11.52;10.43;;;18.70;99.90;;;;;;5002232;28;20213;-78
2021/08/19 08:56:49;;;;;;;12.02;10.93;;;18.80;99.90;;;;;;5009948;28;20202;-80
2021/08/19 08:59:16;;;;;;;12.38;11.15;;;18.80;99.90;;;;;;5003495;28;20260;-81
2021/08/19 09:01:43;;;;;;;12.10;10.95;;;18.80;99.90;;;;;;5009403;28;20263;-80
2021/08/19 09:04:09;;;;;;;12.95;11.65;;;18.80;99.90;;;;;;5024428;28;20227;-81
2021/08/19 09:06:37;;;;;;;11.77;10.68;;;18.80;99.90;;;;;;5019533;28;20280;-79
2021/08/19 09:09:20;;;;;;;13.20;11.90;;;18.80;99.90;;;;;;5013142;28;20268;-79
2021/08/19 09:11:48;;;;;;;13.65;12.27;;;18.80;99.90;;;;;;5023603;28;20199;-79
2021/08/19 09:14:16;;;;;;;17.15;11.52;;;18.80;99.90;;;;;;5023895;28;20247;-78
2021/08/19 09:16:46;;;;;;;13.55;12.10;;;18.80;99.90;;;;;;5013917;28;20221;-79
2021/08/19 09:19:14;;;;;;;12.93;11.70;;;18.80;99.90;;;;;;5024070;28;20252;-79
2021/08/19 09:21:51;;;;;;;13.02;11.65;;;18.90;99.90;;;;;;5023706;28;20608;-79
2021/08/19 09:24:21;;;;;;;14.57;12.98;;;18.80;99.90;;;;;;5009161;28;20232;-81
2021/08/19 09:26:49;;;;;;;13.55;11.88;;;18.80;99.90;;;;;;5013381;28;20219;-80
2021/08/19 09:29:22;;;;;;;15.60;11.98;;;18.90;99.90;;;;;;5024742;28;20201;-79
2021/08/19 09:31:50;;;;;;;12.00;10.80;;;18.80;99.90;;;;;;5023869;28;20232;-80
2021/08/19 09:34:17;;;;;;;13.60;12.18;;;18.80;99.90;;;;;;5014890;28;20243;-80
2021/08/19 09:36:44;;;;;;;12.13;9.85;;;18.90;99.90;;;;;;5023978;28;20691;-80
2021/08/19 09:39:11;;;;;;;11.55;10.43;;;18.80;99.90;;;;;;5024397;28;20263;-80
2021/08/19 09:41:52;;;;;;;13.32;12.15;;;18.80;99.90;;;;;;5024302;28;20633;-79
2021/08/19 09:44:29;;;;;;;11.20;10.10;;;18.90;99.90;;;;;;5026392;28;20216;-81
2021/08/19 09:46:56;;;;;;;16.40;10.45;;;18.90;99.90;;;;;;5017691;28;20225;-80
2021/08/19 09:49:23;;;;;;;15.18;11.30;;;18.90;99.90;;;;;;5017696;28;20608;-80
2021/08/19 09:52:04;;;;;;;13.50;11.00;;;18.90;99.90;;;;;;5035100;28;20189;-78
2021/08/19 09:54:33;;;;;;;11.95;10.75;;;18.90;99.90;;;;;;5001680;28;20198;-75
2021/08/19 09:57:01;;;;;;;12.45;11.13;;;18.90;99.90;;;;;;5012967;28;20204;-75
2021/08/19 09:59:34;;;;;;;10.80;9.80;;;18.90;99.90;;;;;;5007917;28;20219;-75
2021/08/19 10:02:00;;;;;;;13.50;12.20;;;18.90;99.90;;;;;;5015909;28;20284;-74
2021/08/19 10:04:27;;;;;;;14.48;11.00;;;18.90;99.90;;;;;;5016962;28;20189;-75
2021/08/19 10:06:54;;;;;;;14.57;12.38;;;18.90;99.90;;;;;;5014580;28;20220;-75
2021/08/19 10:09:22;;;;;;;12.70;11.50;;;18.80;99.90;;;;;;5000310;28;20275;-76
2021/08/19 10:11:50;;;;;;;11.70;10.60;;;18.90;99.90;;;;;;5014084;28;20203;-75
2021/08/19 10:14:20;;;;;;;11.52;10.32;;;18.90;99.90;;;;;;5012554;28;20197;-75
2021/08/19 10:16:48;;;;;;;12.82;10.90;;;18.90;99.90;;;;;;5014274;28;20219;-75
2021/08/19 10:19:20;;;;;;;12.32;11.02;;;18.90;99.90;;;;;;4998306;28;20205;-75
2021/08/19 10:21:50;;;;;;;16.63;11.38;;;18.90;99.90;;;;;;4995022;28;20201;-75
2021/08/19 10:24:18;;;;;;;12.88;11.63;;;18.90;99.90;;;;;;4994326;28;20689;-75
2021/08/19 10:26:45;;;;;;;10.80;9.68;;;18.90;99.90;;;;;;5007726;28;20227;-75
2021/08/19 10:29:12;;;;;;;11.65;10.40;;;18.90;99.90;;;;;;5012732;28;20196;-75
2021/08/19 10:31:48;;;;;;;10.35;9.35;;;18.90;99.90;;;;;;5013054;28;20201;-75
2021/08/19 10:34:17;;;;;;;12.40;11.10;;;18.90;99.90;;;;;;4994892;28;20899;-75
2021/08/19 10:36:54;;;;;;;11.27;10.27;;;18.90;99.90;;;;;;4994651;28;20201;-76
2021/08/19 10:39:43;;;;;;;11.65;9.60;;;18.90;99.90;;;;;;5000873;28;20193;-75
2021/08/19 10:42:27;;;;;;;10.75;9.43;;;18.90;99.90;;;;;;5008885;28;20208;-76
2021/08/19 10:44:53;;;;;;;11.65;10.45;;;19.00;99.90;;;;;;5014064;28;20200;-75
2021/08/19 10:47:36;;;;;;;10.07;9.15;;;19.00;99.90;;;;;;5006691;28;20748;-76
2021/08/19 10:50:25;;;;;;;11.70;10.60;;;19.00;99.90;;;;;;5008270;28;20201;-75
2021/08/19 10:52:51;;;;;;;10.73;9.45;;;19.00;99.90;;;;;;4993852;28;20198;-75
2021/08/19 10:55:20;;;;;;;9.65;8.85;;;19.00;99.90;;;;;;4994399;28;20193;-75
2021/08/19 10:57:49;;;;;;;11.23;8.95;;;19.00;99.90;;;;;;4993843;28;20194;-76
2021/08/19 11:00:16;;;;;;;9.20;8.32;;;19.00;99.90;;;;;;4993956;28;20197;-76
2021/08/19 11:02:48;;;;;;;8.45;7.68;;;19.00;99.90;;;;;;5007539;28;20196;-76
2021/08/19 11:05:36;;;;;;;9.18;8.38;;;19.00;99.90;;;;;;5013831;28;20205;-76
2021/08/19 11:08:05;;;;;;;9.05;8.25;;;19.00;99.90;;;;;;5009678;28;20221;-76
2021/08/19 11:10:35;;;;;;;9.07;8.27;;;19.00;99.90;;;;;;5012728;28;20569;-76
2021/08/19 11:13:02;;;;;;;10.40;9.40;;;19.00;99.90;;;;;;5013261;28;20211;-76
2021/08/19 11:15:30;;;;;;;10.90;9.90;;;19.00;99.90;;;;;;5012197;28;20213;-76
2021/08/19 11:17:58;;;;;;;9.05;8.25;;;19.00;99.90;;;;;;4998410;28;20205;-76
2021/08/19 11:20:28;;;;;;;10.18;9.10;;;19.00;99.90;;;;;;4993106;28;20244;-76
2021/08/19 11:23:08;;;;;;;11.50;10.50;;;19.00;99.90;;;;;;5009890;28;20228;-77
2021/08/19 11:25:36;;;;;;;11.07;9.05;;;19.00;99.90;;;;;;5018911;28;20196;-76
2021/08/19 11:28:11;;;;;;;9.85;8.95;;;19.00;99.90;;;;;;5012607;28;20221;-76
2021/08/19 11:30:39;;;;;;;10.55;9.55;;;19.00;99.90;;;;;;5010973;28;20200;-76
2021/08/19 11:33:11;;;;;;;11.25;10.05;;;19.00;99.90;;;;;;5001896;28;20193;-76
2021/08/19 11:35:39;;;;;;;10.10;9.20;;;19.00;99.90;;;;;;4998489;28;20198;-76
2021/08/19 11:38:11;;;;;;;9.90;9.05;;;19.00;99.90;;;;;;5009307;28;20312;-76
2021/08/19 11:40:38;;;;;;;9.25;8.40;;;19.00;99.90;;;;;;5012421;28;20677;-76
2021/08/19 11:43:19;;;;;;;9.65;8.65;;;19.00;99.90;;;;;;5009869;28;20255;-76
2021/08/19 11:45:46;;;;;;;10.30;9.30;;;19.00;99.90;;;;;;4993142;28;20244;-76
2021/08/19 11:48:13;;;;;;;10.27;9.38;;;19.10;99.90;;;;;;5000874;28;20220;-76
2021/08/19 11:50:40;;;;;;;9.70;8.80;;;19.10;99.90;;;;;;5013430;28;20197;-76
2021/08/19 11:53:07;;;;;;;14.88;10.07;;;19.10;99.90;;;;;;5006587;28;20202;-75
2021/08/19 11:55:37;;;;;;;11.23;10.25;;;19.10;99.90;;;;;;4997652;28;20696;-76
2021/08/19 11:58:17;;;;;;;10.13;9.10;;;19.00;99.90;;;;;;5009800;28;20201;-76
2021/08/19 12:01:04;;;;;;;10.73;9.82;;;19.10;99.90;;;;;;4996894;28;20255;-76
2021/08/19 12:03:30;;;;;;;10.02;8.90;;;19.10;99.90;;;;;;5001152;28;20248;-77
2021/08/19 12:06:02;;;;;;;11.13;10.10;;;19.10;99.90;;;;;;5012547;28;20201;-76
2021/08/19 12:08:30;;;;;;;11.10;10.10;;;19.10;99.90;;;;;;5004119;28;20220;-76
2021/08/19 12:10:59;;;;;;;10.27;9.13;;;19.20;99.90;;;;;;4997646;28;20240;-76
2021/08/19 12:13:27;;;;;;;11.85;10.75;;;19.10;99.90;;;;;;5005525;28;20196;-76
2021/08/19 12:15:54;;;;;;;10.63;9.43;;;19.20;99.90;;;;;;5005961;28;20209;-76
2021/08/19 12:18:21;;;;;;;10.13;9.10;;;19.30;99.90;;;;;;5011478;28;20204;-76
2021/08/19 12:20:48;;;;;;;11.13;10.13;;;19.20;99.90;;;;;;5009654;28;20279;-76
2021/08/19 12:23:17;;;;;;;12.45;9.80;;;19.20;99.90;;;;;;5006212;28;20580;-76
2021/08/19 12:25:44;;;;;;;10.73;9.82;;;19.20;99.90;;;;;;5010997;28;20201;-75
2021/08/19 12:28:12;;;;;;;12.43;11.23;;;19.20;99.90;;;;;;5004241;28;20221;-76
2021/08/19 12:30:54;;;;;;;10.63;9.63;;;19.20;99.90;;;;;;5000029;28;20208;-76
2021/08/19 12:33:32;;;;;;;10.60;9.70;;;19.20;99.90;;;;;;5009973;28;20195;-76
2021/08/19 12:36:13;;;;;;;11.20;9.98;;;19.20;99.90;;;;;;5008902;28;20713;-75
2021/08/19 12:38:40;;;;;;;10.75;9.75;;;19.30;99.90;;;;;;5010190;28;20208;-75
2021/08/19 12:41:18;;;;;;;11.75;10.65;;;19.30;99.90;;;;;;5014519;28;20562;-75
2021/08/19 12:43:48;;;;;;;11.07;10.02;;;19.30;99.90;;;;;;5002022;28;20251;-76